createdAt,value
2018-04-13T00:00:04.009Z,14.93
2018-04-13T00:01:04.011Z,14.87
2018-04-13T00:02:04.021Z,14.90
2018-04-13T00:03:04.027Z,14.84
2018-04-13T00:04:04.027Z,14.87
2018-04-13T00:05:04.036Z,14.86
2018-04-13T00:06:04.027Z,14.87
2018-04-13T00:07:04.600Z,14.88
2018-04-13T00:08:04.032Z,14.84
2018-04-13T00:09:04.044Z,14.84
2018-04-13T00:10:04.038Z,14.87
2018-04-13T00:11:04.052Z,14.86
2018-04-13T00:12:04.050Z,14.84
2018-04-13T00:13:04.057Z,14.84
2018-04-13T00:14:04.057Z,14.90
2018-04-13T00:15:04.066Z,14.83
2018-04-13T00:16:04.061Z,14.84
2018-04-13T00:17:04.072Z,14.78
2018-04-13T00:18:04.075Z,14.81
2018-04-13T00:19:04.075Z,14.75
2018-04-13T00:20:04.080Z,14.81
2018-04-13T00:21:04.088Z,14.86
2018-04-13T00:22:04.091Z,14.78
2018-04-13T00:23:04.090Z,14.88
2018-04-13T00:24:04.097Z,14.75
2018-04-13T00:25:04.104Z,14.69
2018-04-13T00:26:04.121Z,14.81
2018-04-13T00:27:04.106Z,14.71
2018-04-13T00:28:04.106Z,14.80
2018-04-13T00:29:04.126Z,14.74
2018-04-13T00:30:04.134Z,14.86
2018-04-13T00:31:04.122Z,14.75
2018-04-13T00:32:04.131Z,14.83
2018-04-13T00:33:04.140Z,14.80
2018-04-13T00:34:04.137Z,14.78
2018-04-13T00:35:04.148Z,14.81
2018-04-13T00:36:04.142Z,14.75
2018-04-13T00:37:04.154Z,14.72
2018-04-13T00:38:04.170Z,14.68
2018-04-13T00:39:04.149Z,14.71
2018-04-13T00:40:04.157Z,14.71
2018-04-13T00:41:04.157Z,14.72
2018-04-13T00:42:04.159Z,14.67
2018-04-13T00:43:04.172Z,14.56
2018-04-13T00:44:04.194Z,14.62
2018-04-13T00:45:04.198Z,14.67
2018-04-13T00:46:04.182Z,14.49
2018-04-13T00:47:04.177Z,14.54
2018-04-13T00:48:04.179Z,14.52
2018-04-13T00:49:04.191Z,14.50
2018-04-13T00:50:04.205Z,14.54
2018-04-13T00:51:04.192Z,14.46
2018-04-13T00:52:04.201Z,14.46
2018-04-13T00:53:04.197Z,14.43
2018-04-13T00:54:04.209Z,14.52
2018-04-13T00:55:04.210Z,14.42
2018-04-13T00:56:04.214Z,14.42
2018-04-13T00:57:04.219Z,14.42
2018-04-13T00:58:04.223Z,14.46
2018-04-13T00:59:04.229Z,14.46
2018-04-13T01:00:04.229Z,14.44
2018-04-13T01:01:04.237Z,14.52
2018-04-13T01:02:04.235Z,14.52
2018-04-13T01:03:04.236Z,14.54
2018-04-13T01:04:04.249Z,14.64
2018-04-13T01:05:04.253Z,14.54
2018-04-13T01:06:04.248Z,14.50
2018-04-13T01:07:04.257Z,14.49
2018-04-13T01:08:04.252Z,14.50
2018-04-13T01:09:04.264Z,14.56
2018-04-13T01:10:04.259Z,14.52
2018-04-13T01:11:04.304Z,14.49
2018-04-13T01:12:04.265Z,14.47
2018-04-13T01:13:04.277Z,14.47
2018-04-13T01:14:04.277Z,14.52
2018-04-13T01:15:04.280Z,14.39
2018-04-13T01:16:04.283Z,14.39
2018-04-13T01:17:04.288Z,14.42
2018-04-13T01:18:04.293Z,14.46
2018-04-13T01:19:04.295Z,14.39
2018-04-13T01:20:04.297Z,14.39
2018-04-13T01:21:04.307Z,14.37
2018-04-13T01:22:04.309Z,14.35
2018-04-13T01:23:04.312Z,14.39
2018-04-13T01:24:04.315Z,14.31
2018-04-13T01:25:04.314Z,14.37
2018-04-13T01:26:04.323Z,14.29
2018-04-13T01:27:04.323Z,14.25
2018-04-13T01:28:04.323Z,14.32
2018-04-13T01:29:04.331Z,14.37
2018-04-13T01:30:04.338Z,14.32
2018-04-13T01:31:04.331Z,14.29
2018-04-13T01:32:04.337Z,14.27
2018-04-13T01:33:04.349Z,14.32
2018-04-13T01:34:04.351Z,14.27
2018-04-13T01:35:04.357Z,14.29
2018-04-13T01:36:04.359Z,14.25
2018-04-13T01:37:04.357Z,14.31
2018-04-13T01:38:04.369Z,14.38
2018-04-13T01:39:04.369Z,14.37
2018-04-13T01:40:04.362Z,14.29
2018-04-13T01:41:04.376Z,14.29
2018-04-13T01:42:04.371Z,14.28
2018-04-13T01:43:04.385Z,14.20
2018-04-13T01:44:04.384Z,14.14
2018-04-13T01:45:04.385Z,14.27
2018-04-13T01:46:04.385Z,14.27
2018-04-13T01:47:04.397Z,14.27
2018-04-13T01:48:04.392Z,14.24
2018-04-13T01:49:04.406Z,14.10
2018-04-13T01:50:04.407Z,14.12
2018-04-13T01:51:04.408Z,14.14
2018-04-13T01:52:04.411Z,14.12
2018-04-13T01:53:04.437Z,14.19
2018-04-13T01:54:04.425Z,14.12
2018-04-13T01:55:04.426Z,14.09
2018-04-13T01:56:04.422Z,14.13
2018-04-13T01:57:04.429Z,14.14
2018-04-13T01:58:04.431Z,14.09
2018-04-13T01:59:04.442Z,14.10
2018-04-13T02:00:04.435Z,14.12
2018-04-13T02:01:04.444Z,14.12
2018-04-13T02:02:04.443Z,14.06
2018-04-13T02:03:04.448Z,14.13
2018-04-13T02:04:04.454Z,14.12
2018-04-13T02:05:04.456Z,14.10
2018-04-13T02:06:04.471Z,14.10
2018-04-13T02:07:04.462Z,14.07
2018-04-13T02:08:04.467Z,14.10
2018-04-13T02:09:04.467Z,13.99
2018-04-13T02:10:04.472Z,13.96
2018-04-13T02:11:04.482Z,14.02
2018-04-13T02:12:04.491Z,13.98
2018-04-13T02:13:04.478Z,13.96
2018-04-13T02:14:04.489Z,13.98
2018-04-13T02:15:04.491Z,14.02
2018-04-13T02:16:04.494Z,13.94
2018-04-13T02:17:04.497Z,13.95
2018-04-13T02:18:04.507Z,13.96
2018-04-13T02:19:04.497Z,14.02
2018-04-13T02:20:04.502Z,13.98
2018-04-13T02:21:04.556Z,14.10
2018-04-13T02:22:04.514Z,13.96
2018-04-13T02:23:04.514Z,14.01
2018-04-13T02:24:04.526Z,13.98
2018-04-13T02:25:04.520Z,13.98
2018-04-13T02:26:04.524Z,13.84
2018-04-13T02:27:04.528Z,13.83
2018-04-13T02:28:04.533Z,13.83
2018-04-13T02:29:04.539Z,13.84
2018-04-13T02:30:04.543Z,13.76
2018-04-13T02:31:04.548Z,13.74
2018-04-13T02:32:04.545Z,13.76
2018-04-13T02:33:04.554Z,13.69
2018-04-13T02:34:04.549Z,13.71
2018-04-13T02:35:04.564Z,13.67
2018-04-13T02:36:04.571Z,13.69
2018-04-13T02:37:04.622Z,13.63
2018-04-13T02:38:04.563Z,13.70
2018-04-13T02:39:04.575Z,13.65
2018-04-13T02:40:04.569Z,13.67
2018-04-13T02:41:04.578Z,13.67
2018-04-13T02:42:04.573Z,13.65
2018-04-13T02:43:04.578Z,13.65
2018-04-13T02:44:04.581Z,13.65
2018-04-13T02:45:04.589Z,13.70
2018-04-13T02:46:04.590Z,13.69
2018-04-13T02:47:04.593Z,13.61
2018-04-13T02:48:04.597Z,13.69
2018-04-13T02:49:04.606Z,13.63
2018-04-13T02:50:04.607Z,13.69
2018-04-13T02:51:04.606Z,13.62
2018-04-13T02:52:04.602Z,13.62
2018-04-13T02:53:04.619Z,13.55
2018-04-13T02:54:04.615Z,13.61
2018-04-13T02:55:04.617Z,13.65
2018-04-13T02:56:04.624Z,13.62
2018-04-13T02:57:04.621Z,13.59
2018-04-13T02:58:04.626Z,13.58
2018-04-13T02:59:04.625Z,13.52
2018-04-13T03:00:04.633Z,13.43
2018-04-13T03:01:04.641Z,13.47
2018-04-13T03:02:04.651Z,13.44
2018-04-13T03:03:04.646Z,13.40
2018-04-13T03:04:04.638Z,13.49
2018-04-13T03:05:04.651Z,13.47
2018-04-13T03:06:04.651Z,13.43
2018-04-13T03:07:04.650Z,13.44
2018-04-13T03:08:04.666Z,13.44
2018-04-13T03:09:04.659Z,13.43
2018-04-13T03:10:04.666Z,13.36
2018-04-13T03:11:04.661Z,13.38
2018-04-13T03:12:04.683Z,13.51
2018-04-13T03:13:04.761Z,13.43
2018-04-13T03:14:04.689Z,13.37
2018-04-13T03:15:04.688Z,13.38
2018-04-13T03:16:04.679Z,13.40
2018-04-13T03:17:04.680Z,13.37
2018-04-13T03:18:04.694Z,13.37
2018-04-13T03:19:04.689Z,13.29
2018-04-13T03:20:04.693Z,13.27
2018-04-13T03:21:04.697Z,13.25
2018-04-13T03:22:04.704Z,13.30
2018-04-13T03:23:04.703Z,13.27
2018-04-13T03:24:04.702Z,13.29
2018-04-13T03:25:04.723Z,13.27
2018-04-13T03:26:04.714Z,13.30
2018-04-13T03:27:04.714Z,13.25
2018-04-13T03:28:04.719Z,13.30
2018-04-13T03:29:04.721Z,13.37
2018-04-13T03:30:04.725Z,13.30
2018-04-13T03:31:04.720Z,13.40
2018-04-13T03:32:04.726Z,13.29
2018-04-13T03:33:04.734Z,13.32
2018-04-13T03:34:04.730Z,13.33
2018-04-13T03:35:04.741Z,13.22
2018-04-13T03:36:04.740Z,13.29
2018-04-13T03:37:04.747Z,13.27
2018-04-13T03:38:04.741Z,13.24
2018-04-13T03:39:04.751Z,13.22
2018-04-13T03:40:04.750Z,13.30
2018-04-13T03:41:04.755Z,13.29
2018-04-13T03:42:04.760Z,13.24
2018-04-13T03:43:04.761Z,13.21
2018-04-13T03:44:04.766Z,13.18
2018-04-13T03:45:04.773Z,13.25
2018-04-13T03:46:04.774Z,13.27
2018-04-13T03:47:04.785Z,13.25
2018-04-13T03:48:04.775Z,13.24
2018-04-13T03:49:04.779Z,13.33
2018-04-13T03:50:04.787Z,13.25
2018-04-13T03:51:04.788Z,13.27
2018-04-13T03:52:04.799Z,13.30
2018-04-13T03:53:04.796Z,13.18
2018-04-13T03:54:04.818Z,13.27
2018-04-13T03:55:04.791Z,13.21
2018-04-13T03:56:04.796Z,13.25
2018-04-13T03:57:04.807Z,13.17
2018-04-13T03:58:04.810Z,13.27
2018-04-13T03:59:04.805Z,13.25
2018-04-13T04:00:04.809Z,13.29
2018-04-13T04:01:04.814Z,13.38
2018-04-13T04:02:04.868Z,13.36
2018-04-13T04:03:04.820Z,13.33
2018-04-13T04:04:04.819Z,13.36
2018-04-13T04:05:04.824Z,13.36
2018-04-13T04:06:04.828Z,13.33
2018-04-13T04:07:04.834Z,13.32
2018-04-13T04:08:04.830Z,13.37
2018-04-13T04:09:04.848Z,13.33
2018-04-13T04:10:04.842Z,13.32
2018-04-13T04:11:04.865Z,13.33
2018-04-13T04:12:04.846Z,13.27
2018-04-13T04:13:04.852Z,13.32
2018-04-13T04:14:04.867Z,13.32
2018-04-13T04:15:04.866Z,13.29
2018-04-13T04:16:04.866Z,13.41
2018-04-13T04:17:04.874Z,13.32
2018-04-13T04:18:04.883Z,13.27
2018-04-13T04:19:04.882Z,13.38
2018-04-13T04:20:04.868Z,13.33
2018-04-13T04:21:04.873Z,13.29
2018-04-13T04:22:04.875Z,13.43
2018-04-13T04:23:04.889Z,13.33
2018-04-13T04:24:04.897Z,13.36
2018-04-13T04:25:04.882Z,13.30
2018-04-13T04:26:04.887Z,13.40
2018-04-13T04:27:04.892Z,13.41
2018-04-13T04:28:04.889Z,13.38
2018-04-13T04:29:04.900Z,13.46
2018-04-13T04:30:04.905Z,13.41
2018-04-13T04:31:04.901Z,13.40
2018-04-13T04:32:04.910Z,13.38
2018-04-13T04:33:04.908Z,13.40
2018-04-13T04:34:04.916Z,13.41
2018-04-13T04:35:04.919Z,13.37
2018-04-13T04:36:04.913Z,13.32
2018-04-13T04:37:04.927Z,13.33
2018-04-13T04:38:04.932Z,13.36
2018-04-13T04:39:04.942Z,13.33
2018-04-13T04:40:04.928Z,13.32
2018-04-13T04:41:04.941Z,13.44
2018-04-13T04:42:04.938Z,13.36
2018-04-13T04:43:04.948Z,13.47
2018-04-13T04:44:04.953Z,13.33
2018-04-13T04:45:04.950Z,13.38
2018-04-13T04:46:04.952Z,13.43
2018-04-13T04:47:04.951Z,13.37
2018-04-13T04:48:04.959Z,13.43
2018-04-13T04:49:04.968Z,13.43
2018-04-13T04:50:04.956Z,13.44
2018-04-13T04:51:04.966Z,13.56
2018-04-13T04:52:04.965Z,13.58
2018-04-13T04:53:04.972Z,13.58
2018-04-13T04:54:04.971Z,13.49
2018-04-13T04:55:04.978Z,13.51
2018-04-13T04:56:04.978Z,13.56
2018-04-13T04:57:04.989Z,13.49
2018-04-13T04:58:04.984Z,13.56
2018-04-13T04:59:04.991Z,13.54
2018-04-13T05:00:04.989Z,13.58
2018-04-13T05:01:05.003Z,13.56
2018-04-13T05:02:04.993Z,13.56
2018-04-13T05:03:05.007Z,13.52
2018-04-13T05:04:05.017Z,13.62
2018-04-13T05:05:05.015Z,13.58
2018-04-13T05:06:05.019Z,13.61
2018-04-13T05:07:05.015Z,13.56
2018-04-13T05:08:05.022Z,13.58
2018-04-13T05:09:05.025Z,13.62
2018-04-13T05:10:05.027Z,13.69
2018-04-13T05:11:05.038Z,13.63
2018-04-13T05:12:05.028Z,13.63
2018-04-13T05:13:05.044Z,13.59
2018-04-13T05:14:05.067Z,13.65
2018-04-13T05:15:07.044Z,13.73
2018-04-13T05:16:05.713Z,13.74
2018-04-13T05:17:07.693Z,13.71
2018-04-13T05:18:07.274Z,13.67
2018-04-13T05:19:05.046Z,13.69
2018-04-13T05:20:05.054Z,13.69
2018-04-13T05:21:05.056Z,13.70
2018-04-13T05:22:05.059Z,13.77
2018-04-13T05:23:05.067Z,13.74
2018-04-13T05:24:05.063Z,13.77
2018-04-13T05:25:05.076Z,13.74
2018-04-13T05:26:05.076Z,13.77
2018-04-13T05:27:05.077Z,13.89
2018-04-13T05:28:05.082Z,13.91
2018-04-13T05:29:05.078Z,13.95
2018-04-13T05:30:05.109Z,13.99
2018-04-13T05:31:05.091Z,13.95
2018-04-13T05:32:05.088Z,13.99
2018-04-13T05:33:05.101Z,14.07
2018-04-13T05:34:05.102Z,14.07
2018-04-13T05:35:05.136Z,14.06
2018-04-13T05:36:05.109Z,14.07
2018-04-13T05:37:05.123Z,14.09
2018-04-13T05:38:05.107Z,14.09
2018-04-13T05:39:05.112Z,14.13
2018-04-13T05:40:05.165Z,14.10
2018-04-13T05:41:05.118Z,14.10
2018-04-13T05:42:05.133Z,14.13
2018-04-13T05:43:05.167Z,14.19
2018-04-13T05:44:05.124Z,14.10
2018-04-13T05:45:05.137Z,14.21
2018-04-13T05:46:05.191Z,14.25
2018-04-13T05:47:05.144Z,14.21
2018-04-13T05:48:05.146Z,14.38
2018-04-13T05:49:05.143Z,14.38
2018-04-13T05:50:05.153Z,14.39
2018-04-13T05:51:05.149Z,14.38
2018-04-13T05:52:05.156Z,14.44
2018-04-13T05:53:05.166Z,14.52
2018-04-13T05:54:05.162Z,14.47
2018-04-13T05:55:05.180Z,14.52
2018-04-13T05:56:05.171Z,14.52
2018-04-13T05:57:05.174Z,14.61
2018-04-13T05:58:05.176Z,14.80
2018-04-13T05:59:05.181Z,14.84
2018-04-13T06:00:05.182Z,14.91
2018-04-13T06:01:05.192Z,14.86
2018-04-13T06:02:05.193Z,14.93
2018-04-13T06:03:05.202Z,15.02
2018-04-13T06:04:05.192Z,15.02
2018-04-13T06:05:05.210Z,15.11
2018-04-13T06:06:05.245Z,15.09
2018-04-13T06:07:05.211Z,15.11
2018-04-13T06:08:05.210Z,15.19
2018-04-13T06:09:05.220Z,15.24
2018-04-13T06:10:05.223Z,15.27
2018-04-13T06:11:05.217Z,15.31
2018-04-13T06:12:05.223Z,15.30
2018-04-13T06:13:05.236Z,15.43
2018-04-13T06:14:05.237Z,15.39
2018-04-13T06:15:05.234Z,15.52
2018-04-13T06:16:05.239Z,15.54
2018-04-13T06:17:05.249Z,15.46
2018-04-13T06:18:05.250Z,15.59
2018-04-13T06:19:05.250Z,15.60
2018-04-13T06:20:05.255Z,15.67
2018-04-13T06:21:05.262Z,15.74
2018-04-13T06:22:05.272Z,15.79
2018-04-13T06:23:05.274Z,15.82
2018-04-13T06:24:05.275Z,15.74
2018-04-13T06:25:05.281Z,15.70
2018-04-13T06:26:05.291Z,15.70
2018-04-13T06:27:05.281Z,15.76
2018-04-13T06:28:05.287Z,15.61
2018-04-13T06:29:05.315Z,15.60
2018-04-13T06:30:05.299Z,15.64
2018-04-13T06:31:05.300Z,15.72
2018-04-13T06:32:05.304Z,15.86
2018-04-13T06:33:05.309Z,15.85
2018-04-13T06:34:05.316Z,15.94
2018-04-13T06:35:05.332Z,15.94
2018-04-13T06:36:05.341Z,15.97
2018-04-13T06:37:05.327Z,16.00
2018-04-13T06:38:05.338Z,15.88
2018-04-13T06:39:05.344Z,15.74
2018-04-13T06:40:05.339Z,15.60
2018-04-13T06:41:05.359Z,15.56
2018-04-13T06:42:05.350Z,15.45
2018-04-13T06:43:05.352Z,15.48
2018-04-13T06:44:05.356Z,15.51
2018-04-13T06:45:05.364Z,15.42
2018-04-13T06:46:05.374Z,15.45
2018-04-13T06:47:05.369Z,15.45
2018-04-13T06:48:05.377Z,15.43
2018-04-13T06:49:05.378Z,15.45
2018-04-13T06:50:05.384Z,15.48
2018-04-13T06:51:05.392Z,15.49
2018-04-13T06:52:05.397Z,15.51
2018-04-13T06:53:05.396Z,15.38
2018-04-13T06:54:05.404Z,15.38
2018-04-13T06:55:05.410Z,15.42
2018-04-13T06:56:05.419Z,15.46
2018-04-13T06:57:05.416Z,15.59
2018-04-13T06:58:05.473Z,15.60
2018-04-13T06:59:05.419Z,15.67
2018-04-13T07:00:05.428Z,15.84
2018-04-13T07:01:05.436Z,15.86
2018-04-13T07:02:05.441Z,15.97
2018-04-13T07:03:05.442Z,16.03
2018-04-13T07:04:05.443Z,16.16
2018-04-13T07:05:05.452Z,16.27
2018-04-13T07:06:05.456Z,16.41
2018-04-13T07:07:05.462Z,16.42
2018-04-13T07:08:05.463Z,16.55
2018-04-13T07:09:05.465Z,16.65
2018-04-13T07:10:05.485Z,16.77
2018-04-13T07:11:05.476Z,16.93
2018-04-13T07:12:05.484Z,16.99
2018-04-13T07:13:05.491Z,17.25
2018-04-13T07:14:05.488Z,17.29
2018-04-13T07:15:05.505Z,17.40
2018-04-13T07:16:05.505Z,17.47
2018-04-13T07:17:05.524Z,17.62
2018-04-13T07:18:05.512Z,17.82
2018-04-13T07:19:05.521Z,18.12
2018-04-13T07:20:05.525Z,18.39
2018-04-13T07:21:05.532Z,18.64
2018-04-13T07:22:05.534Z,18.95
2018-04-13T07:23:05.547Z,19.13
2018-04-13T07:24:05.538Z,19.33
2018-04-13T07:25:05.556Z,19.39
2018-04-13T07:26:05.555Z,19.57
2018-04-13T07:27:06.838Z,19.54
2018-04-13T07:28:05.569Z,19.66
2018-04-13T07:29:05.575Z,19.69
2018-04-13T07:30:05.741Z,19.76
2018-04-13T07:31:05.584Z,19.75
2018-04-13T07:32:06.091Z,19.87
2018-04-13T07:33:05.603Z,19.91
2018-04-13T07:34:06.179Z,20.00
2018-04-13T07:35:05.610Z,20.03
2018-04-13T07:36:05.615Z,20.08
2018-04-13T07:37:05.626Z,19.90
2018-04-13T07:38:05.633Z,19.73
2018-04-13T07:39:05.638Z,19.72
2018-04-13T07:40:05.651Z,19.57
2018-04-13T07:41:05.652Z,19.32
2018-04-13T07:42:05.662Z,19.21
2018-04-13T07:43:05.665Z,19.46
2018-04-13T07:44:05.676Z,19.46
2018-04-13T07:45:05.732Z,19.50
2018-04-13T07:46:05.695Z,19.32
2018-04-13T07:47:05.698Z,19.25
2018-04-13T07:48:05.708Z,19.24
2018-04-13T07:49:05.717Z,19.17
2018-04-13T07:50:05.733Z,19.17
2018-04-13T07:51:05.725Z,19.17
2018-04-13T07:52:05.755Z,19.13
2018-04-13T07:53:05.989Z,18.92
2018-04-13T07:54:05.760Z,18.86
2018-04-13T07:55:05.846Z,18.86
2018-04-13T07:56:05.767Z,18.97
2018-04-13T07:57:05.793Z,18.95
2018-04-13T07:58:05.784Z,18.86
2018-04-13T07:59:05.803Z,18.80
2018-04-13T08:00:05.809Z,18.83
2018-04-13T08:01:06.094Z,18.91
2018-04-13T08:02:05.828Z,18.83
2018-04-13T08:03:05.821Z,18.77
2018-04-13T08:04:05.834Z,18.83
2018-04-13T08:05:05.841Z,18.76
2018-04-13T08:06:05.844Z,18.70
2018-04-13T08:07:05.853Z,18.70
2018-04-13T08:08:05.859Z,18.72
2018-04-13T08:09:05.869Z,18.74
2018-04-13T08:10:06.256Z,18.57
2018-04-13T08:11:05.885Z,18.64
2018-04-13T08:12:05.896Z,18.72
2018-04-13T08:13:05.911Z,18.72
2018-04-13T08:14:05.970Z,18.84
2018-04-13T08:15:06.281Z,18.72
2018-04-13T08:16:05.917Z,18.50
2018-04-13T08:17:05.928Z,18.46
2018-04-13T08:18:05.925Z,18.43
2018-04-13T08:19:05.944Z,18.47
2018-04-13T08:20:05.941Z,18.49
2018-04-13T08:21:05.952Z,18.49
2018-04-13T08:22:05.964Z,18.59
2018-04-13T08:23:05.967Z,18.64
2018-04-13T08:24:05.980Z,18.79
2018-04-13T08:25:05.983Z,18.83
2018-04-13T08:26:05.991Z,18.83
2018-04-13T08:27:05.995Z,18.84
2018-04-13T08:28:05.998Z,18.73
2018-04-13T08:29:06.012Z,18.74
2018-04-13T08:30:06.015Z,18.74
2018-04-13T08:31:06.019Z,18.80
2018-04-13T08:32:06.027Z,18.90
2018-04-13T08:33:06.034Z,18.87
2018-04-13T08:34:06.042Z,18.94
2018-04-13T08:35:06.067Z,18.91
2018-04-13T08:36:06.073Z,19.06
2018-04-13T08:37:06.066Z,19.06
2018-04-13T08:38:06.077Z,19.15
2018-04-13T08:39:06.088Z,19.13
2018-04-13T08:40:06.073Z,19.08
2018-04-13T08:41:06.094Z,19.06
2018-04-13T08:42:06.089Z,19.08
2018-04-13T08:43:06.105Z,18.92
2018-04-13T08:44:06.102Z,18.91
2018-04-13T08:45:06.118Z,18.87
2018-04-13T08:46:06.120Z,18.73
2018-04-13T08:47:06.135Z,18.73
2018-04-13T08:48:06.128Z,18.64
2018-04-13T08:49:06.258Z,18.58
2018-04-13T08:50:06.155Z,18.46
2018-04-13T08:51:06.155Z,18.44
2018-04-13T08:52:06.166Z,18.40
2018-04-13T08:53:06.178Z,18.43
2018-04-13T08:54:06.239Z,18.44
2018-04-13T08:55:06.175Z,18.44
2018-04-13T08:56:06.242Z,18.43
2018-04-13T08:57:06.319Z,18.50
2018-04-13T08:58:06.207Z,18.52
2018-04-13T08:59:06.226Z,18.49
2018-04-13T09:00:06.209Z,18.49
2018-04-13T09:01:06.234Z,18.52
2018-04-13T09:02:06.232Z,18.46
2018-04-13T09:03:06.230Z,18.54
2018-04-13T09:04:12.543Z,18.52
2018-04-13T09:05:06.266Z,18.49
2018-04-13T09:06:06.251Z,18.55
2018-04-13T09:07:06.267Z,18.46
2018-04-13T09:08:06.262Z,18.55
2018-04-13T09:09:06.276Z,18.57
2018-04-13T09:10:06.280Z,18.46
2018-04-13T09:11:06.281Z,18.49
2018-04-13T09:12:06.293Z,18.59
2018-04-13T09:13:06.312Z,18.68
2018-04-13T09:14:06.301Z,18.72
2018-04-13T09:15:06.309Z,18.74
2018-04-13T09:16:06.314Z,18.91
2018-04-13T09:17:06.323Z,18.90
2018-04-13T09:18:06.333Z,18.95
2018-04-13T09:19:06.330Z,19.02
2018-04-13T09:20:06.338Z,19.15
2018-04-13T09:21:06.352Z,19.08
2018-04-13T09:22:06.354Z,19.21
2018-04-13T09:23:06.369Z,19.39
2018-04-13T09:24:06.387Z,19.51
2018-04-13T09:25:06.375Z,19.68
2018-04-13T09:26:07.265Z,19.79
2018-04-13T09:27:06.392Z,20.00
2018-04-13T09:28:06.397Z,20.10
2018-04-13T09:29:06.409Z,20.27
2018-04-13T09:30:06.410Z,20.23
2018-04-13T09:31:06.417Z,20.41
2018-04-13T09:32:06.430Z,20.42
2018-04-13T09:33:06.459Z,20.39
2018-04-13T09:34:06.443Z,20.42
2018-04-13T09:35:06.443Z,20.33
2018-04-13T09:36:06.451Z,20.25
2018-04-13T09:37:06.467Z,20.16
2018-04-13T09:38:06.472Z,20.21
2018-04-13T09:39:06.480Z,20.18
2018-04-13T09:40:06.480Z,20.27
2018-04-13T09:41:06.496Z,20.43
2018-04-13T09:42:06.494Z,20.53
2018-04-13T09:43:06.510Z,20.62
2018-04-13T09:44:06.515Z,20.59
2018-04-13T09:45:06.526Z,20.69
2018-04-13T09:46:06.571Z,20.76
2018-04-13T09:47:06.548Z,20.90
2018-04-13T09:48:06.567Z,20.90
2018-04-13T09:49:06.566Z,20.96
2018-04-13T09:50:06.568Z,21.29
2018-04-13T09:51:06.573Z,21.34
2018-04-13T09:52:06.584Z,21.27
2018-04-13T09:53:06.595Z,21.34
2018-04-13T09:54:06.599Z,21.23
2018-04-13T09:55:06.611Z,21.16
2018-04-13T09:56:06.614Z,21.11
2018-04-13T09:57:06.625Z,21.13
2018-04-13T09:58:06.660Z,21.14
2018-04-13T09:59:06.641Z,21.27
2018-04-13T10:00:06.658Z,21.29
2018-04-13T10:01:06.655Z,21.23
2018-04-13T10:02:06.674Z,21.32
2018-04-13T10:03:06.680Z,21.29
2018-04-13T10:04:06.693Z,21.23
2018-04-13T10:05:06.700Z,21.38
2018-04-13T10:06:06.701Z,21.36
2018-04-13T10:07:06.718Z,21.41
2018-04-13T10:08:06.734Z,21.30
2018-04-13T10:09:06.729Z,21.35
2018-04-13T10:10:06.741Z,21.32
2018-04-13T10:11:06.754Z,21.11
2018-04-13T10:12:06.756Z,21.26
2018-04-13T10:13:06.775Z,21.17
2018-04-13T10:14:06.782Z,20.93
2018-04-13T10:15:06.788Z,20.76
2018-04-13T10:16:06.804Z,20.72
2018-04-13T10:17:06.812Z,20.58
2018-04-13T10:18:06.819Z,20.54
2018-04-13T10:19:06.830Z,20.64
2018-04-13T10:20:07.015Z,20.61
2018-04-13T10:21:06.844Z,20.69
2018-04-13T10:22:06.850Z,20.74
2018-04-13T10:23:06.862Z,20.65
2018-04-13T10:24:07.438Z,20.71
2018-04-13T10:25:06.888Z,20.66
2018-04-13T10:26:06.883Z,20.59
2018-04-13T10:27:06.900Z,20.58
2018-04-13T10:28:06.913Z,20.59
2018-04-13T10:29:06.909Z,20.61
2018-04-13T10:30:06.947Z,20.59
2018-04-13T10:31:06.926Z,20.68
2018-04-13T10:32:06.943Z,20.77
2018-04-13T10:33:06.955Z,20.69
2018-04-13T10:34:06.960Z,20.62
2018-04-13T10:35:06.974Z,20.59
2018-04-13T10:36:06.974Z,20.59
2018-04-13T10:37:07.018Z,20.53
2018-04-13T10:38:06.987Z,20.50
2018-04-13T10:39:07.040Z,20.35
2018-04-13T10:40:07.115Z,20.35
2018-04-13T10:41:07.037Z,20.47
2018-04-13T10:42:07.125Z,20.42
2018-04-13T10:43:07.055Z,20.43
2018-04-13T10:44:07.045Z,20.41
2018-04-13T10:45:07.088Z,20.47
2018-04-13T10:46:07.140Z,20.50
2018-04-13T10:47:07.117Z,20.39
2018-04-13T10:48:07.095Z,20.39
2018-04-13T10:49:07.183Z,20.46
2018-04-13T10:50:07.102Z,20.50
2018-04-13T10:51:07.403Z,20.59
2018-04-13T10:52:07.120Z,20.65
2018-04-13T10:53:07.125Z,20.74
2018-04-13T10:54:07.131Z,20.80
2018-04-13T10:55:07.150Z,20.87
2018-04-13T10:56:07.148Z,21.06
2018-04-13T10:57:07.185Z,20.96
2018-04-13T10:58:07.166Z,21.09
2018-04-13T10:59:07.182Z,21.11
2018-04-13T11:00:07.175Z,21.16
2018-04-13T11:01:07.218Z,21.06
2018-04-13T11:02:07.199Z,21.04
2018-04-13T11:03:07.216Z,20.95
2018-04-13T11:04:07.221Z,20.95
2018-04-13T11:05:07.226Z,20.87
2018-04-13T11:06:07.224Z,21.02
2018-04-13T11:07:07.281Z,21.05
2018-04-13T11:08:07.242Z,21.21
2018-04-13T11:09:07.267Z,21.19
2018-04-13T11:10:07.264Z,21.11
2018-04-13T11:11:07.274Z,21.13
2018-04-13T11:12:07.285Z,21.06
2018-04-13T11:13:07.288Z,21.14
2018-04-13T11:14:07.294Z,20.99
2018-04-13T11:15:07.298Z,20.98
2018-04-13T11:16:07.306Z,20.91
2018-04-13T11:17:07.320Z,20.83
2018-04-13T11:18:07.356Z,20.72
2018-04-13T11:19:07.344Z,20.62
2018-04-13T11:20:07.339Z,20.62
2018-04-13T11:21:07.349Z,20.49
2018-04-13T11:22:07.362Z,20.56
2018-04-13T11:23:07.357Z,20.56
2018-04-13T11:24:07.379Z,20.61
2018-04-13T11:25:07.388Z,20.68
2018-04-13T11:26:07.391Z,20.72
2018-04-13T11:27:07.402Z,20.72
2018-04-13T11:28:07.404Z,20.77
2018-04-13T11:29:07.414Z,20.87
2018-04-13T11:30:07.422Z,20.91
2018-04-13T11:31:07.423Z,20.90
2018-04-13T11:32:07.432Z,20.86
2018-04-13T11:33:07.443Z,20.86
2018-04-13T11:34:07.457Z,20.77
2018-04-13T11:35:07.662Z,20.61
2018-04-13T11:36:07.466Z,20.59
2018-04-13T11:37:07.475Z,20.54
2018-04-13T11:38:07.476Z,20.54
2018-04-13T11:39:07.484Z,20.47
2018-04-13T11:40:07.493Z,20.42
2018-04-13T11:41:07.504Z,20.41
2018-04-13T11:42:07.508Z,20.54
2018-04-13T11:43:07.519Z,20.49
2018-04-13T11:44:07.523Z,20.46
2018-04-13T11:45:07.538Z,20.38
2018-04-13T11:46:07.542Z,20.21
2018-04-13T11:47:07.547Z,20.18
2018-04-13T11:48:07.557Z,20.21
2018-04-13T11:49:07.566Z,20.06
2018-04-13T11:50:07.595Z,19.95
2018-04-13T11:51:07.575Z,19.93
2018-04-13T11:52:07.587Z,19.94
2018-04-13T11:53:07.597Z,19.83
2018-04-13T11:54:07.601Z,19.87
2018-04-13T11:55:07.611Z,19.88
2018-04-13T11:56:07.620Z,19.86
2018-04-13T11:57:07.625Z,19.87
2018-04-13T11:58:07.636Z,19.72
2018-04-13T11:59:07.644Z,19.75
2018-04-13T12:00:07.646Z,19.72
2018-04-13T12:01:07.660Z,19.63
2018-04-13T12:02:07.664Z,19.60
2018-04-13T12:03:07.670Z,19.58
2018-04-13T12:04:07.673Z,19.46
2018-04-13T12:05:07.689Z,19.42
2018-04-13T12:06:07.687Z,19.43
2018-04-13T12:07:07.703Z,19.50
2018-04-13T12:08:07.701Z,19.43
2018-04-13T12:09:07.711Z,19.32
2018-04-13T12:10:07.727Z,19.25
2018-04-13T12:11:07.724Z,19.17
2018-04-13T12:12:07.738Z,19.10
2018-04-13T12:13:07.735Z,19.05
2018-04-13T12:14:07.745Z,18.98
2018-04-13T12:15:07.749Z,18.94
2018-04-13T12:16:07.760Z,18.87
2018-04-13T12:17:07.773Z,18.84
2018-04-13T12:18:07.775Z,18.80
2018-04-13T12:19:07.781Z,18.70
2018-04-13T12:20:07.786Z,18.74
2018-04-13T12:21:07.796Z,18.72
2018-04-13T12:22:07.804Z,18.76
2018-04-13T12:23:07.840Z,18.68
2018-04-13T12:24:07.813Z,18.59
2018-04-13T12:25:07.816Z,18.72
2018-04-13T12:26:07.831Z,18.64
2018-04-13T12:27:07.832Z,18.58
2018-04-13T12:28:07.838Z,18.50
2018-04-13T12:29:07.883Z,18.46
2018-04-13T12:30:07.852Z,18.49
2018-04-13T12:31:07.872Z,18.55
2018-04-13T12:32:07.860Z,18.52
2018-04-13T12:33:07.869Z,18.46
2018-04-13T12:34:07.884Z,18.50
2018-04-13T12:35:07.880Z,18.58
2018-04-13T12:36:07.881Z,18.55
2018-04-13T12:37:07.896Z,18.61
2018-04-13T12:38:07.905Z,18.58
2018-04-13T12:39:07.901Z,18.59
2018-04-13T12:40:07.904Z,18.61
2018-04-13T12:41:07.920Z,18.64
2018-04-13T12:42:07.923Z,18.55
2018-04-13T12:43:07.929Z,18.55
2018-04-13T12:44:07.932Z,18.52
2018-04-13T12:45:07.934Z,18.52
2018-04-13T12:46:07.947Z,18.46
2018-04-13T12:47:07.948Z,18.40
2018-04-13T12:48:07.961Z,18.43
2018-04-13T12:49:07.963Z,18.44
2018-04-13T12:50:07.964Z,18.43
2018-04-13T12:51:07.980Z,18.28
2018-04-13T12:52:07.978Z,18.33